Aérodrome :
LOGIN :

S'inscrire | Disclaimer

   EN    FR    IT 

 










Légende :    VFR   VFR Marginal   IFR   IFR Intensif   IFR Très Intensif
Visi : 
Plafond : 
>= 8 km
>= 3000ft
5 à 8 km
1000 à 3000 ft
1500m à 5 km
500 à 1000 ft
800 à 1500m
200 à 500 ft
< 800m
< 200 ft
Symboles :   Orages  Brouillard  Fortes neiges  Fortes précipitations  Vent > 20 kt
SIGMETs :   Divers  Orages  Givrage  Turbulence  Onde Orograph.  Cendres Volcan.







- Altitude de l'aérodrome : 3 ft
- Code IATA : LWR


EHLW - Leuuwarden Air Base

DERNIER METAR :
  • 231348Z AUTO 26014KT 220V300 9999 OVC190 19/06 Q1016 BLU 26014KT CAVOK

METARs EXPIRÉS :
  • 231325Z AUTO 26014KT 220V280 9999 FEW210 19/07 Q1016 BLU 21011KT CAVOK
  • 231255Z AUTO 26014KT 210V300 9999 BKN210 OVC270 19/08 Q1016 BLU 21011KT CAVOK
  • 231225Z AUTO 26014KT 220V290 9999 OVC270 19/10 Q1016 BLU 21011KT CAVOK RMK TS INFO NOT AVBL
  • 231155Z AUTO 24013KT 200V280 9999 FEW053 OVC220 20/08 Q1016 BLU 21011KT CAVOK
  • 231125Z AUTO 24015KT 200V270 9999 FEW053 OVC250 20/08 Q1016 BLU 21011KT CAVOK RMK TS INFO NOT AVBL
  • 231055Z AUTO 24013KT 190V280 9999 FEW052 OVC260 19/07 Q1017 BLU 21011KT CAVOK

TAF TAF EHLW
Valide du 23 à 13h jusqu'au 24 à 01h UTC


231202Z 2313/2401 27013G23KT CAVOK
BECMG 2317/2320 VRB03KT
Pas de NOTAMs connus pour ce terrain.



MET'MAP, la Météo Aéronautique d'un coup d'oeil ! - Copyright ORBIFLY Décembre 2007 - Disclaimer

ORBIFLY MET'MAP TEAM :

Programmation & Développement : Alexandra Zaïnal
Conception & Développement : Baudouin d'Aumeries
Co-Programmation & Développement : Marc-Olivier Méhu
Soutien technique & logistique : Manuel Goepfert

Contact : metmap@orbifly.com




SOURCES & CREDITS :

   NOAA